sensor_id;sensor_type;location;lat;lon;timestamp;P1;durP1;ratioP1;P2;durP2;ratioP2
74259;SDS011;62630;55.874;37.516;2022-09-30T00:01:44;12.32;;;7.90;;
74259;SDS011;62630;55.874;37.516;2022-09-30T00:04:18;17.35;;;7.57;;
74259;SDS011;62630;55.874;37.516;2022-09-30T00:06:45;16.88;;;8.75;;
74259;SDS011;62630;55.874;37.516;2022-09-30T00:09:11;16.95;;;8.18;;
74259;SDS011;62630;55.874;37.516;2022-09-30T00:11:37;13.95;;;8.20;;
74259;SDS011;62630;55.874;37.516;2022-09-30T00:14:04;15.07;;;8.50;;
74259;SDS011;62630;55.874;37.516;2022-09-30T00:16:31;15.55;;;9.32;;
74259;SDS011;62630;55.874;37.516;2022-09-30T00:18:59;16.27;;;9.63;;
74259;SDS011;62630;55.874;37.516;2022-09-30T00:21:25;17.33;;;10.68;;
74259;SDS011;62630;55.874;37.516;2022-09-30T00:23:53;18.48;;;10.75;;
74259;SDS011;62630;55.874;37.516;2022-09-30T00:26:19;17.27;;;10.88;;
74259;SDS011;62630;55.874;37.516;2022-09-30T00:28:50;18.52;;;10.32;;
74259;SDS011;62630;55.874;37.516;2022-09-30T00:31:17;17.60;;;10.02;;
74259;SDS011;62630;55.874;37.516;2022-09-30T00:33:44;17.65;;;10.60;;
74259;SDS011;62630;55.874;37.516;2022-09-30T00:36:31;15.88;;;9.65;;
74259;SDS011;62630;55.874;37.516;2022-09-30T00:38:59;17.85;;;9.68;;
74259;SDS011;62630;55.874;37.516;2022-09-30T00:41:24;15.60;;;9.63;;
74259;SDS011;62630;55.874;37.516;2022-09-30T00:43:51;14.30;;;9.05;;
74259;SDS011;62630;55.874;37.516;2022-09-30T00:46:19;23.50;;;10.18;;
74259;SDS011;62630;55.874;37.516;2022-09-30T00:48:57;15.40;;;10.27;;
74259;SDS011;62630;55.874;37.516;2022-09-30T00:51:32;15.05;;;10.38;;
74259;SDS011;62630;55.874;37.516;2022-09-30T00:54:05;17.77;;;10.57;;
74259;SDS011;62630;55.874;37.516;2022-09-30T00:56:37;15.65;;;9.68;;
74259;SDS011;62630;55.874;37.516;2022-09-30T00:59:09;19.48;;;10.23;;
74259;SDS011;62630;55.874;37.516;2022-09-30T01:01:39;14.95;;;8.82;;
74259;SDS011;62630;55.874;37.516;2022-09-30T01:04:16;19.85;;;9.35;;
74259;SDS011;62630;55.874;37.516;2022-09-30T01:06:45;15.70;;;8.65;;
74259;SDS011;62630;55.874;37.516;2022-09-30T01:09:12;15.88;;;10.13;;
74259;SDS011;62630;55.874;37.516;2022-09-30T01:11:39;22.88;;;11.13;;
74259;SDS011;62630;55.874;37.516;2022-09-30T01:14:06;25.65;;;13.48;;
74259;SDS011;62630;55.874;37.516;2022-09-30T01:16:38;19.63;;;13.40;;
74259;SDS011;62630;55.874;37.516;2022-09-30T01:36:12;13.50;;;7.30;;
74259;SDS011;62630;55.874;37.516;2022-09-30T01:46:52;11.75;;;6.35;;
74259;SDS011;62630;55.874;37.516;2022-09-30T01:49:22;11.50;;;6.28;;
74259;SDS011;62630;55.874;37.516;2022-09-30T01:52:29;13.38;;;6.63;;
74259;SDS011;62630;55.874;37.516;2022-09-30T02:00:23;17.08;;;7.40;;
74259;SDS011;62630;55.874;37.516;2022-09-30T02:02:56;11.77;;;6.35;;
74259;SDS011;62630;55.874;37.516;2022-09-30T02:08:00;12.00;;;7.93;;
74259;SDS011;62630;55.874;37.516;2022-09-30T02:10:38;10.05;;;6.93;;
74259;SDS011;62630;55.874;37.516;2022-09-30T02:13:12;12.32;;;7.38;;
74259;SDS011;62630;55.874;37.516;2022-09-30T02:15:46;10.43;;;7.03;;
74259;SDS011;62630;55.874;37.516;2022-09-30T02:18:28;15.27;;;7.72;;
74259;SDS011;62630;55.874;37.516;2022-09-30T02:21:00;10.85;;;7.20;;
74259;SDS011;62630;55.874;37.516;2022-09-30T02:23:30;11.48;;;6.90;;
74259;SDS011;62630;55.874;37.516;2022-09-30T02:26:06;10.32;;;6.63;;
74259;SDS011;62630;55.874;37.516;2022-09-30T02:28:37;12.43;;;7.07;;
74259;SDS011;62630;55.874;37.516;2022-09-30T02:31:09;12.82;;;7.35;;
74259;SDS011;62630;55.874;37.516;2022-09-30T02:33:59;11.00;;;7.05;;
74259;SDS011;62630;55.874;37.516;2022-09-30T02:36:35;9.82;;;6.50;;
74259;SDS011;62630;55.874;37.516;2022-09-30T02:41:51;18.75;;;9.02;;
74259;SDS011;62630;55.874;37.516;2022-09-30T02:44:19;11.85;;;7.18;;
74259;SDS011;62630;55.874;37.516;2022-09-30T02:46:53;9.90;;;6.93;;
74259;SDS011;62630;55.874;37.516;2022-09-30T02:49:30;10.02;;;6.75;;
74259;SDS011;62630;55.874;37.516;2022-09-30T02:52:14;13.80;;;8.00;;
74259;SDS011;62630;55.874;37.516;2022-09-30T02:57:44;12.57;;;6.97;;
74259;SDS011;62630;55.874;37.516;2022-09-30T03:02:55;11.30;;;7.43;;
74259;SDS011;62630;55.874;37.516;2022-09-30T03:05:24;13.73;;;7.35;;
74259;SDS011;62630;55.874;37.516;2022-09-30T03:07:52;10.05;;;7.10;;
74259;SDS011;62630;55.874;37.516;2022-09-30T03:10:18;16.45;;;7.93;;
74259;SDS011;62630;55.874;37.516;2022-09-30T03:12:58;15.50;;;8.07;;
74259;SDS011;62630;55.874;37.516;2022-09-30T03:15:29;13.43;;;7.55;;
74259;SDS011;62630;55.874;37.516;2022-09-30T03:23:26;12.65;;;7.53;;
74259;SDS011;62630;55.874;37.516;2022-09-30T03:26:17;16.83;;;7.70;;
74259;SDS011;62630;55.874;37.516;2022-09-30T03:34:37;16.42;;;8.00;;
74259;SDS011;62630;55.874;37.516;2022-09-30T03:40:22;12.63;;;7.18;;
74259;SDS011;62630;55.874;37.516;2022-09-30T03:42:52;9.32;;;6.22;;
74259;SDS011;62630;55.874;37.516;2022-09-30T03:45:36;13.85;;;7.43;;
74259;SDS011;62630;55.874;37.516;2022-09-30T03:48:07;16.10;;;7.97;;
74259;SDS011;62630;55.874;37.516;2022-09-30T03:50:36;12.35;;;8.00;;
74259;SDS011;62630;55.874;37.516;2022-09-30T03:53:07;10.23;;;7.15;;
74259;SDS011;62630;55.874;37.516;2022-09-30T03:55:46;14.68;;;7.10;;
74259;SDS011;62630;55.874;37.516;2022-09-30T03:58:15;11.05;;;7.53;;
74259;SDS011;62630;55.874;37.516;2022-09-30T04:00:52;11.60;;;6.88;;
74259;SDS011;62630;55.874;37.516;2022-09-30T04:03:22;13.90;;;8.27;;
74259;SDS011;62630;55.874;37.516;2022-09-30T04:05:48;10.68;;;7.18;;
74259;SDS011;62630;55.874;37.516;2022-09-30T04:08:16;12.40;;;6.97;;
74259;SDS011;62630;55.874;37.516;2022-09-30T04:10:43;11.43;;;7.35;;
74259;SDS011;62630;55.874;37.516;2022-09-30T04:13:11;9.98;;;6.35;;
74259;SDS011;62630;55.874;37.516;2022-09-30T04:15:37;10.95;;;7.00;;
74259;SDS011;62630;55.874;37.516;2022-09-30T04:18:05;11.60;;;7.97;;
74259;SDS011;62630;55.874;37.516;2022-09-30T04:20:31;11.90;;;7.88;;
74259;SDS011;62630;55.874;37.516;2022-09-30T04:22:57;13.38;;;7.80;;
74259;SDS011;62630;55.874;37.516;2022-09-30T04:25:25;15.60;;;8.60;;
74259;SDS011;62630;55.874;37.516;2022-09-30T04:27:53;12.68;;;7.68;;
74259;SDS011;62630;55.874;37.516;2022-09-30T04:30:20;11.98;;;8.80;;
74259;SDS011;62630;55.874;37.516;2022-09-30T04:32:46;14.60;;;8.93;;
74259;SDS011;62630;55.874;37.516;2022-09-30T04:35:12;11.80;;;8.93;;
74259;SDS011;62630;55.874;37.516;2022-09-30T04:37:42;15.07;;;8.63;;
74259;SDS011;62630;55.874;37.516;2022-09-30T04:40:10;13.45;;;8.90;;
74259;SDS011;62630;55.874;37.516;2022-09-30T04:42:40;12.02;;;8.23;;
74259;SDS011;62630;55.874;37.516;2022-09-30T04:45:09;11.35;;;7.60;;
74259;SDS011;62630;55.874;37.516;2022-09-30T04:47:36;13.60;;;7.88;;
74259;SDS011;62630;55.874;37.516;2022-09-30T04:50:02;10.02;;;6.25;;
74259;SDS011;62630;55.874;37.516;2022-09-30T04:52:28;10.38;;;7.03;;
74259;SDS011;62630;55.874;37.516;2022-09-30T04:54:54;9.52;;;6.47;;
74259;SDS011;62630;55.874;37.516;2022-09-30T04:57:19;17.15;;;8.25;;
74259;SDS011;62630;55.874;37.516;2022-09-30T04:59:45;11.57;;;7.13;;
74259;SDS011;62630;55.874;37.516;2022-09-30T05:02:10;12.40;;;6.80;;
74259;SDS011;62630;55.874;37.516;2022-09-30T05:04:37;10.00;;;6.38;;
74259;SDS011;62630;55.874;37.516;2022-09-30T05:07:06;15.63;;;6.90;;
74259;SDS011;62630;55.874;37.516;2022-09-30T05:09:35;12.75;;;6.82;;
74259;SDS011;62630;55.874;37.516;2022-09-30T05:12:03;13.55;;;6.82;;
74259;SDS011;62630;55.874;37.516;2022-09-30T05:14:29;14.02;;;7.43;;
74259;SDS011;62630;55.874;37.516;2022-09-30T05:16:54;11.98;;;7.65;;
74259;SDS011;62630;55.874;37.516;2022-09-30T05:19:23;8.60;;;6.50;;
74259;SDS011;62630;55.874;37.516;2022-09-30T05:21:49;14.23;;;7.13;;
74259;SDS011;62630;55.874;37.516;2022-09-30T05:24:16;12.63;;;6.72;;
74259;SDS011;62630;55.874;37.516;2022-09-30T05:26:43;11.82;;;6.82;;
74259;SDS011;62630;55.874;37.516;2022-09-30T05:29:09;17.60;;;6.72;;
74259;SDS011;62630;55.874;37.516;2022-09-30T05:31:35;11.90;;;5.93;;
74259;SDS011;62630;55.874;37.516;2022-09-30T05:34:01;12.80;;;6.82;;
74259;SDS011;62630;55.874;37.516;2022-09-30T05:36:29;12.30;;;7.05;;
74259;SDS011;62630;55.874;37.516;2022-09-30T05:38:54;11.07;;;7.15;;
74259;SDS011;62630;55.874;37.516;2022-09-30T05:41:20;15.10;;;6.88;;
74259;SDS011;62630;55.874;37.516;2022-09-30T05:43:48;12.98;;;7.15;;
74259;SDS011;62630;55.874;37.516;2022-09-30T05:46:16;15.00;;;7.00;;
74259;SDS011;62630;55.874;37.516;2022-09-30T05:48:44;15.70;;;6.88;;
74259;SDS011;62630;55.874;37.516;2022-09-30T05:51:11;14.45;;;7.10;;
74259;SDS011;62630;55.874;37.516;2022-09-30T05:53:37;12.02;;;6.80;;
74259;SDS011;62630;55.874;37.516;2022-09-30T05:56:05;10.07;;;6.72;;
74259;SDS011;62630;55.874;37.516;2022-09-30T05:58:33;12.70;;;7.82;;
74259;SDS011;62630;55.874;37.516;2022-09-30T06:01:07;14.55;;;7.28;;
74259;SDS011;62630;55.874;37.516;2022-09-30T06:03:34;12.68;;;6.53;;
74259;SDS011;62630;55.874;37.516;2022-09-30T06:06:00;12.07;;;6.72;;
74259;SDS011;62630;55.874;37.516;2022-09-30T06:08:27;12.27;;;6.47;;
74259;SDS011;62630;55.874;37.516;2022-09-30T06:10:54;15.18;;;7.07;;
74259;SDS011;62630;55.874;37.516;2022-09-30T06:13:19;15.07;;;6.95;;
74259;SDS011;62630;55.874;37.516;2022-09-30T06:15:58;14.00;;;6.30;;
74259;SDS011;62630;55.874;37.516;2022-09-30T06:18:25;15.38;;;7.20;;
74259;SDS011;62630;55.874;37.516;2022-09-30T06:20:56;15.55;;;7.90;;
74259;SDS011;62630;55.874;37.516;2022-09-30T06:23:26;18.30;;;8.23;;
74259;SDS011;62630;55.874;37.516;2022-09-30T06:25:52;14.18;;;7.55;;
74259;SDS011;62630;55.874;37.516;2022-09-30T06:30:53;13.15;;;7.25;;
74259;SDS011;62630;55.874;37.516;2022-09-30T06:33:19;12.40;;;7.70;;
74259;SDS011;62630;55.874;37.516;2022-09-30T06:35:45;13.32;;;6.75;;
74259;SDS011;62630;55.874;37.516;2022-09-30T06:38:15;15.35;;;6.97;;
74259;SDS011;62630;55.874;37.516;2022-09-30T06:40:42;12.68;;;6.30;;
74259;SDS011;62630;55.874;37.516;2022-09-30T06:43:08;17.67;;;7.53;;
74259;SDS011;62630;55.874;37.516;2022-09-30T06:45:35;9.93;;;6.20;;
74259;SDS011;62630;55.874;37.516;2022-09-30T06:48:03;19.40;;;6.70;;
74259;SDS011;62630;55.874;37.516;2022-09-30T06:50:31;13.40;;;6.88;;
74259;SDS011;62630;55.874;37.516;2022-09-30T06:53:00;19.65;;;7.43;;
74259;SDS011;62630;55.874;37.516;2022-09-30T06:55:28;13.02;;;6.90;;
74259;SDS011;62630;55.874;37.516;2022-09-30T06:57:54;15.50;;;6.82;;
74259;SDS011;62630;55.874;37.516;2022-09-30T07:00:21;9.57;;;7.43;;
74259;SDS011;62630;55.874;37.516;2022-09-30T07:02:48;15.85;;;7.65;;
74259;SDS011;62630;55.874;37.516;2022-09-30T07:05:14;21.10;;;8.23;;
74259;SDS011;62630;55.874;37.516;2022-09-30T07:07:41;20.63;;;8.40;;
74259;SDS011;62630;55.874;37.516;2022-09-30T07:10:08;23.63;;;8.82;;
74259;SDS011;62630;55.874;37.516;2022-09-30T07:12:34;18.05;;;7.95;;
74259;SDS011;62630;55.874;37.516;2022-09-30T07:15:00;18.23;;;7.88;;
74259;SDS011;62630;55.874;37.516;2022-09-30T07:17:26;16.52;;;7.57;;
74259;SDS011;62630;55.874;37.516;2022-09-30T07:19:52;13.73;;;7.50;;
74259;SDS011;62630;55.874;37.516;2022-09-30T07:22:20;19.83;;;7.95;;
74259;SDS011;62630;55.874;37.516;2022-09-30T07:24:52;21.98;;;7.53;;
74259;SDS011;62630;55.874;37.516;2022-09-30T07:27:19;22.98;;;9.05;;
74259;SDS011;62630;55.874;37.516;2022-09-30T07:29:46;14.68;;;8.13;;
74259;SDS011;62630;55.874;37.516;2022-09-30T07:32:12;14.63;;;8.30;;
74259;SDS011;62630;55.874;37.516;2022-09-30T07:34:38;14.60;;;8.38;;
74259;SDS011;62630;55.874;37.516;2022-09-30T07:37:08;16.13;;;8.65;;
74259;SDS011;62630;55.874;37.516;2022-09-30T07:39:36;18.13;;;8.20;;
74259;SDS011;62630;55.874;37.516;2022-09-30T07:42:02;20.17;;;8.15;;
74259;SDS011;62630;55.874;37.516;2022-09-30T07:44:31;16.30;;;7.65;;
74259;SDS011;62630;55.874;37.516;2022-09-30T07:46:57;16.73;;;7.72;;
74259;SDS011;62630;55.874;37.516;2022-09-30T07:49:23;17.27;;;8.27;;
74259;SDS011;62630;55.874;37.516;2022-09-30T07:51:50;15.30;;;7.25;;
74259;SDS011;62630;55.874;37.516;2022-09-30T07:54:19;20.02;;;8.32;;
74259;SDS011;62630;55.874;37.516;2022-09-30T07:56:49;17.17;;;7.25;;
74259;SDS011;62630;55.874;37.516;2022-09-30T07:59:16;14.60;;;8.77;;
74259;SDS011;62630;55.874;37.516;2022-09-30T08:01:43;15.63;;;7.60;;
74259;SDS011;62630;55.874;37.516;2022-09-30T08:04:10;18.48;;;8.38;;
74259;SDS011;62630;55.874;37.516;2022-09-30T08:06:41;20.90;;;8.20;;
74259;SDS011;62630;55.874;37.516;2022-09-30T08:09:09;15.15;;;8.13;;
74259;SDS011;62630;55.874;37.516;2022-09-30T08:11:36;23.45;;;8.57;;
74259;SDS011;62630;55.874;37.516;2022-09-30T08:14:03;22.75;;;9.05;;
74259;SDS011;62630;55.874;37.516;2022-09-30T08:16:29;19.88;;;8.35;;
74259;SDS011;62630;55.874;37.516;2022-09-30T08:18:55;18.85;;;8.57;;
74259;SDS011;62630;55.874;37.516;2022-09-30T08:21:22;13.93;;;8.48;;
74259;SDS011;62630;55.874;37.516;2022-09-30T08:23:47;16.48;;;9.02;;
74259;SDS011;62630;55.874;37.516;2022-09-30T08:26:14;16.17;;;9.55;;
74259;SDS011;62630;55.874;37.516;2022-09-30T08:28:41;16.42;;;8.60;;
74259;SDS011;62630;55.874;37.516;2022-09-30T08:31:13;13.50;;;9.35;;
74259;SDS011;62630;55.874;37.516;2022-09-30T08:33:43;16.17;;;9.63;;
74259;SDS011;62630;55.874;37.516;2022-09-30T08:36:10;18.45;;;9.23;;
74259;SDS011;62630;55.874;37.516;2022-09-30T08:38:37;18.73;;;9.70;;
74259;SDS011;62630;55.874;37.516;2022-09-30T08:43:38;13.90;;;9.00;;
74259;SDS011;62630;55.874;37.516;2022-09-30T08:46:10;18.70;;;9.13;;
74259;SDS011;62630;55.874;37.516;2022-09-30T08:48:56;20.75;;;9.82;;
74259;SDS011;62630;55.874;37.516;2022-09-30T08:51:35;18.83;;;10.13;;
74259;SDS011;62630;55.874;37.516;2022-09-30T08:54:10;20.42;;;10.25;;
74259;SDS011;62630;55.874;37.516;2022-09-30T08:56:43;24.42;;;10.73;;
74259;SDS011;62630;55.874;37.516;2022-09-30T09:02:12;18.63;;;10.65;;
74259;SDS011;62630;55.874;37.516;2022-09-30T09:05:00;19.33;;;10.70;;
74259;SDS011;62630;55.874;37.516;2022-09-30T09:13:07;20.42;;;10.23;;
74259;SDS011;62630;55.874;37.516;2022-09-30T09:16:10;19.40;;;10.88;;
74259;SDS011;62630;55.874;37.516;2022-09-30T09:24:15;19.55;;;11.15;;
74259;SDS011;62630;55.874;37.516;2022-09-30T09:26:43;18.80;;;10.45;;
74259;SDS011;62630;55.874;37.516;2022-09-30T09:29:17;20.88;;;10.82;;
74259;SDS011;62630;55.874;37.516;2022-09-30T09:31:52;18.77;;;9.48;;
74259;SDS011;62630;55.874;37.516;2022-09-30T09:34:18;21.30;;;10.18;;
74259;SDS011;62630;55.874;37.516;2022-09-30T09:45:41;16.40;;;9.82;;
74259;SDS011;62630;55.874;37.516;2022-09-30T09:48:27;16.80;;;10.27;;
74259;SDS011;62630;55.874;37.516;2022-09-30T09:53:51;22.42;;;11.55;;
74259;SDS011;62630;55.874;37.516;2022-09-30T09:56:29;20.80;;;10.65;;
74259;SDS011;62630;55.874;37.516;2022-09-30T10:01:33;19.92;;;11.52;;
74259;SDS011;62630;55.874;37.516;2022-09-30T10:06:51;23.60;;;11.20;;
74259;SDS011;62630;55.874;37.516;2022-09-30T10:09:32;21.85;;;12.10;;
74259;SDS011;62630;55.874;37.516;2022-09-30T10:14:38;21.70;;;11.73;;
74259;SDS011;62630;55.874;37.516;2022-09-30T10:17:19;20.10;;;12.25;;
74259;SDS011;62630;55.874;37.516;2022-09-30T10:19:54;23.73;;;12.68;;
74259;SDS011;62630;55.874;37.516;2022-09-30T10:22:42;25.50;;;12.10;;
74259;SDS011;62630;55.874;37.516;2022-09-30T10:27:35;22.52;;;11.73;;
74259;SDS011;62630;55.874;37.516;2022-09-30T10:30:01;31.48;;;12.25;;
74259;SDS011;62630;55.874;37.516;2022-09-30T10:32:30;20.98;;;11.70;;
74259;SDS011;62630;55.874;37.516;2022-09-30T10:35:06;18.63;;;11.68;;
74259;SDS011;62630;55.874;37.516;2022-09-30T10:37:52;23.85;;;13.35;;
74259;SDS011;62630;55.874;37.516;2022-09-30T10:40:18;25.80;;;14.20;;
74259;SDS011;62630;55.874;37.516;2022-09-30T10:42:52;25.55;;;12.43;;
74259;SDS011;62630;55.874;37.516;2022-09-30T10:45:20;22.70;;;12.27;;
74259;SDS011;62630;55.874;37.516;2022-09-30T10:47:48;20.08;;;12.48;;
74259;SDS011;62630;55.874;37.516;2022-09-30T10:50:18;21.17;;;12.65;;
74259;SDS011;62630;55.874;37.516;2022-09-30T10:52:46;27.17;;;13.65;;
74259;SDS011;62630;55.874;37.516;2022-09-30T10:57:45;20.70;;;12.35;;
74259;SDS011;62630;55.874;37.516;2022-09-30T11:00:13;20.27;;;12.95;;
74259;SDS011;62630;55.874;37.516;2022-09-30T11:10:40;23.23;;;12.73;;
74259;SDS011;62630;55.874;37.516;2022-09-30T11:16:00;20.55;;;12.55;;
74259;SDS011;62630;55.874;37.516;2022-09-30T11:21:12;20.52;;;10.88;;
74259;SDS011;62630;55.874;37.516;2022-09-30T11:23:58;20.73;;;11.10;;
74259;SDS011;62630;55.874;37.516;2022-09-30T11:31:48;15.05;;;9.48;;
74259;SDS011;62630;55.874;37.516;2022-09-30T11:40:23;21.98;;;12.10;;
74259;SDS011;62630;55.874;37.516;2022-09-30T11:45:44;21.25;;;12.23;;
74259;SDS011;62630;55.874;37.516;2022-09-30T11:57:00;18.48;;;11.55;;
74259;SDS011;62630;55.874;37.516;2022-09-30T11:59:54;20.52;;;11.48;;
74259;SDS011;62630;55.874;37.516;2022-09-30T12:04:55;22.40;;;10.82;;
74259;SDS011;62630;55.874;37.516;2022-09-30T12:10:33;13.65;;;10.10;;
74259;SDS011;62630;55.874;37.516;2022-09-30T12:13:05;16.23;;;10.57;;
74259;SDS011;62630;55.874;37.516;2022-09-30T12:15:36;17.67;;;10.55;;
74259;SDS011;62630;55.874;37.516;2022-09-30T12:18:21;17.45;;;11.15;;
74259;SDS011;62630;55.874;37.516;2022-09-30T12:23:30;14.93;;;10.73;;
74259;SDS011;62630;55.874;37.516;2022-09-30T12:26:00;17.15;;;9.23;;
74259;SDS011;62630;55.874;37.516;2022-09-30T12:34:24;16.70;;;9.45;;
74259;SDS011;62630;55.874;37.516;2022-09-30T12:40:17;16.73;;;9.38;;
74259;SDS011;62630;55.874;37.516;2022-09-30T12:42:56;18.02;;;10.55;;
74259;SDS011;62630;55.874;37.516;2022-09-30T12:45:40;27.20;;;12.20;;
74259;SDS011;62630;55.874;37.516;2022-09-30T12:48:17;23.13;;;13.32;;
74259;SDS011;62630;55.874;37.516;2022-09-30T12:50:52;27.42;;;13.35;;
74259;SDS011;62630;55.874;37.516;2022-09-30T12:56:05;27.00;;;13.65;;
74259;SDS011;62630;55.874;37.516;2022-09-30T12:58:36;22.52;;;13.23;;
74259;SDS011;62630;55.874;37.516;2022-09-30T13:01:10;30.40;;;15.32;;
74259;SDS011;62630;55.874;37.516;2022-09-30T13:06:13;22.38;;;12.85;;
74259;SDS011;62630;55.874;37.516;2022-09-30T13:08:42;26.30;;;14.52;;
74259;SDS011;62630;55.874;37.516;2022-09-30T13:11:20;25.30;;;13.00;;
74259;SDS011;62630;55.874;37.516;2022-09-30T13:19:49;20.77;;;9.52;;
74259;SDS011;62630;55.874;37.516;2022-09-30T13:32:39;30.90;;;13.45;;
74259;SDS011;62630;55.874;37.516;2022-09-30T13:40:51;27.80;;;13.80;;
74259;SDS011;62630;55.874;37.516;2022-09-30T13:43:31;23.58;;;12.68;;
74259;SDS011;62630;55.874;37.516;2022-09-30T13:46:06;20.63;;;11.18;;
74259;SDS011;62630;55.874;37.516;2022-09-30T13:48:49;23.45;;;11.35;;
74259;SDS011;62630;55.874;37.516;2022-09-30T13:51:19;26.02;;;11.88;;
74259;SDS011;62630;55.874;37.516;2022-09-30T13:53:53;22.90;;;11.80;;
74259;SDS011;62630;55.874;37.516;2022-09-30T13:59:36;24.10;;;11.07;;
74259;SDS011;62630;55.874;37.516;2022-09-30T14:13:41;19.08;;;10.77;;
74259;SDS011;62630;55.874;37.516;2022-09-30T14:19:17;17.17;;;10.43;;
74259;SDS011;62630;55.874;37.516;2022-09-30T14:22:07;19.35;;;11.07;;
74259;SDS011;62630;55.874;37.516;2022-09-30T14:24:35;18.02;;;10.35;;
74259;SDS011;62630;55.874;37.516;2022-09-30T14:27:28;14.73;;;10.35;;
74259;SDS011;62630;55.874;37.516;2022-09-30T14:30:10;20.27;;;10.32;;
74259;SDS011;62630;55.874;37.516;2022-09-30T14:35:21;17.77;;;9.85;;
74259;SDS011;62630;55.874;37.516;2022-09-30T14:38:05;18.02;;;10.13;;
74259;SDS011;62630;55.874;37.516;2022-09-30T14:40:32;17.25;;;10.68;;
74259;SDS011;62630;55.874;37.516;2022-09-30T14:43:04;14.93;;;10.57;;
74259;SDS011;62630;55.874;37.516;2022-09-30T14:45:38;15.48;;;10.50;;
74259;SDS011;62630;55.874;37.516;2022-09-30T14:48:13;18.75;;;10.88;;
74259;SDS011;62630;55.874;37.516;2022-09-30T14:53:26;19.38;;;11.10;;
74259;SDS011;62630;55.874;37.516;2022-09-30T14:55:58;19.48;;;10.52;;
74259;SDS011;62630;55.874;37.516;2022-09-30T15:03:25;18.92;;;11.35;;
74259;SDS011;62630;55.874;37.516;2022-09-30T15:05:56;15.57;;;10.85;;
74259;SDS011;62630;55.874;37.516;2022-09-30T15:08:23;24.13;;;11.35;;
74259;SDS011;62630;55.874;37.516;2022-09-30T15:10:50;21.00;;;11.10;;
74259;SDS011;62630;55.874;37.516;2022-09-30T15:13:18;18.92;;;12.15;;
74259;SDS011;62630;55.874;37.516;2022-09-30T15:15:48;21.00;;;11.32;;
74259;SDS011;62630;55.874;37.516;2022-09-30T15:18:47;19.35;;;11.70;;
74259;SDS011;62630;55.874;37.516;2022-09-30T15:21:11;19.23;;;12.02;;
74259;SDS011;62630;55.874;37.516;2022-09-30T15:23:43;19.02;;;10.93;;
74259;SDS011;62630;55.874;37.516;2022-09-30T15:26:14;17.17;;;11.25;;
74259;SDS011;62630;55.874;37.516;2022-09-30T15:28:40;15.13;;;10.73;;
74259;SDS011;62630;55.874;37.516;2022-09-30T15:31:12;19.58;;;10.63;;
74259;SDS011;62630;55.874;37.516;2022-09-30T15:34:01;21.67;;;12.02;;
74259;SDS011;62630;55.874;37.516;2022-09-30T15:36:30;16.85;;;11.32;;
74259;SDS011;62630;55.874;37.516;2022-09-30T15:38:58;26.17;;;12.27;;
74259;SDS011;62630;55.874;37.516;2022-09-30T15:41:24;18.90;;;12.60;;
74259;SDS011;62630;55.874;37.516;2022-09-30T15:43:50;19.13;;;13.25;;
74259;SDS011;62630;55.874;37.516;2022-09-30T15:46:30;17.55;;;11.90;;
74259;SDS011;62630;55.874;37.516;2022-09-30T15:49:08;14.55;;;11.43;;
74259;SDS011;62630;55.874;37.516;2022-09-30T15:57:56;17.73;;;11.30;;
74259;SDS011;62630;55.874;37.516;2022-09-30T16:00:32;19.20;;;11.50;;
74259;SDS011;62630;55.874;37.516;2022-09-30T16:03:06;15.05;;;11.45;;
74259;SDS011;62630;55.874;37.516;2022-09-30T16:05:37;18.83;;;11.98;;
74259;SDS011;62630;55.874;37.516;2022-09-30T16:08:07;15.82;;;11.68;;
74259;SDS011;62630;55.874;37.516;2022-09-30T16:10:34;18.83;;;12.35;;
74259;SDS011;62630;55.874;37.516;2022-09-30T16:13:02;19.25;;;12.32;;
74259;SDS011;62630;55.874;37.516;2022-09-30T16:15:34;18.50;;;12.40;;
74259;SDS011;62630;55.874;37.516;2022-09-30T16:18:04;15.48;;;10.70;;
74259;SDS011;62630;55.874;37.516;2022-09-30T16:20:30;20.48;;;12.20;;
74259;SDS011;62630;55.874;37.516;2022-09-30T16:22:56;16.05;;;11.10;;
74259;SDS011;62630;55.874;37.516;2022-09-30T16:25:27;18.02;;;10.40;;
74259;SDS011;62630;55.874;37.516;2022-09-30T16:28:00;15.27;;;10.30;;
74259;SDS011;62630;55.874;37.516;2022-09-30T16:30:43;12.45;;;9.55;;
74259;SDS011;62630;55.874;37.516;2022-09-30T16:33:12;16.92;;;9.40;;
74259;SDS011;62630;55.874;37.516;2022-09-30T16:35:42;12.38;;;9.55;;
74259;SDS011;62630;55.874;37.516;2022-09-30T16:38:12;11.30;;;9.75;;
74259;SDS011;62630;55.874;37.516;2022-09-30T16:40:39;15.20;;;9.88;;
74259;SDS011;62630;55.874;37.516;2022-09-30T16:43:05;15.75;;;10.27;;
74259;SDS011;62630;55.874;37.516;2022-09-30T16:45:31;12.95;;;9.60;;
74259;SDS011;62630;55.874;37.516;2022-09-30T16:47:58;13.10;;;9.48;;
74259;SDS011;62630;55.874;37.516;2022-09-30T16:50:39;14.63;;;10.38;;
74259;SDS011;62630;55.874;37.516;2022-09-30T16:53:08;15.55;;;10.45;;
74259;SDS011;62630;55.874;37.516;2022-09-30T16:55:34;14.95;;;10.40;;
74259;SDS011;62630;55.874;37.516;2022-09-30T16:58:00;13.68;;;10.57;;
74259;SDS011;62630;55.874;37.516;2022-09-30T17:00:28;15.38;;;10.38;;
74259;SDS011;62630;55.874;37.516;2022-09-30T17:02:54;17.52;;;10.43;;
74259;SDS011;62630;55.874;37.516;2022-09-30T17:05:21;16.73;;;10.10;;
74259;SDS011;62630;55.874;37.516;2022-09-30T17:07:51;14.18;;;9.27;;
74259;SDS011;62630;55.874;37.516;2022-09-30T17:12:54;16.85;;;10.85;;
74259;SDS011;62630;55.874;37.516;2022-09-30T17:15:24;16.67;;;10.52;;
74259;SDS011;62630;55.874;37.516;2022-09-30T17:17:54;14.70;;;9.32;;
74259;SDS011;62630;55.874;37.516;2022-09-30T17:20:21;17.95;;;10.35;;
74259;SDS011;62630;55.874;37.516;2022-09-30T17:22:47;19.13;;;10.27;;
74259;SDS011;62630;55.874;37.516;2022-09-30T17:25:15;17.83;;;10.07;;
74259;SDS011;62630;55.874;37.516;2022-09-30T17:27:42;19.77;;;10.32;;
74259;SDS011;62630;55.874;37.516;2022-09-30T17:30:12;15.90;;;10.60;;
74259;SDS011;62630;55.874;37.516;2022-09-30T17:32:39;14.45;;;10.43;;
74259;SDS011;62630;55.874;37.516;2022-09-30T17:35:06;16.52;;;10.57;;
74259;SDS011;62630;55.874;37.516;2022-09-30T17:37:33;14.30;;;9.82;;
74259;SDS011;62630;55.874;37.516;2022-09-30T17:40:01;16.08;;;10.48;;
74259;SDS011;62630;55.874;37.516;2022-09-30T17:42:47;13.60;;;9.98;;
74259;SDS011;62630;55.874;37.516;2022-09-30T17:45:31;15.55;;;9.75;;
74259;SDS011;62630;55.874;37.516;2022-09-30T17:47:57;18.48;;;9.98;;
74259;SDS011;62630;55.874;37.516;2022-09-30T17:50:23;16.48;;;10.32;;
74259;SDS011;62630;55.874;37.516;2022-09-30T17:52:49;16.73;;;11.65;;
74259;SDS011;62630;55.874;37.516;2022-09-30T17:55:15;17.35;;;11.57;;
74259;SDS011;62630;55.874;37.516;2022-09-30T17:57:42;17.38;;;11.25;;
74259;SDS011;62630;55.874;37.516;2022-09-30T18:00:11;16.77;;;10.50;;
74259;SDS011;62630;55.874;37.516;2022-09-30T18:02:41;14.60;;;9.63;;
74259;SDS011;62630;55.874;37.516;2022-09-30T18:05:08;13.95;;;9.80;;
74259;SDS011;62630;55.874;37.516;2022-09-30T18:07:35;16.88;;;10.80;;
74259;SDS011;62630;55.874;37.516;2022-09-30T18:10:00;15.85;;;11.60;;
74259;SDS011;62630;55.874;37.516;2022-09-30T18:12:26;15.45;;;11.18;;
74259;SDS011;62630;55.874;37.516;2022-09-30T18:14:52;19.25;;;11.38;;